createdAt,value
2018-10-18T00:00:30.366Z,48.48
2018-10-18T00:01:01.461Z,52.10
2018-10-18T00:01:32.561Z,48.90
2018-10-18T00:02:03.670Z,49.18
2018-10-18T00:02:34.800Z,51.68
2018-10-18T00:03:05.999Z,50.75
2018-10-18T00:03:38.507Z,50.30
2018-10-18T00:04:09.615Z,50.12
2018-10-18T00:04:40.720Z,49.53
2018-10-18T00:05:11.820Z,49.88
2018-10-18T00:05:42.921Z,47.95
2018-10-18T00:06:14.156Z,47.10
2018-10-18T00:06:45.209Z,46.92
2018-10-18T00:07:16.318Z,46.58
2018-10-18T00:07:47.413Z,46.25
2018-10-18T00:08:18.508Z,45.50
2018-10-18T00:08:49.619Z,46.02
2018-10-18T00:09:21.039Z,45.58
2018-10-18T00:09:53.044Z,46.18
2018-10-18T00:10:24.150Z,46.80
2018-10-18T00:10:55.259Z,44.80
2018-10-18T00:11:26.397Z,45.78
2018-10-18T00:11:57.527Z,45.25
2018-10-18T00:12:28.622Z,45.48
2018-10-18T00:12:59.723Z,44.40
2018-10-18T00:13:30.817Z,45.95
2018-10-18T00:14:01.974Z,45.90
2018-10-18T00:14:33.053Z,44.40
2018-10-18T00:15:04.153Z,43.60
2018-10-18T00:15:35.254Z,45.03
2018-10-18T00:16:06.366Z,44.45
2018-10-18T00:16:37.537Z,44.20
2018-10-18T00:17:08.635Z,43.87
2018-10-18T00:17:39.734Z,43.55
2018-10-18T00:18:11.004Z,43.48
2018-10-18T00:18:42.009Z,44.30
2018-10-18T00:19:13.118Z,44.42
2018-10-18T00:19:44.214Z,44.93
2018-10-18T00:20:15.387Z,43.58
2018-10-18T00:20:46.435Z,44.13
2018-10-18T00:21:17.535Z,42.98
2018-10-18T00:21:48.637Z,42.62
2018-10-18T00:22:19.732Z,42.78
2018-10-18T00:22:50.892Z,42.88
2018-10-18T00:23:23.039Z,43.05
2018-10-18T00:23:54.268Z,42.53
2018-10-18T00:24:25.346Z,42.73
2018-10-18T00:24:57.241Z,42.93
2018-10-18T00:25:28.339Z,44.30
2018-10-18T00:25:59.488Z,42.48
2018-10-18T00:26:30.592Z,42.70
2018-10-18T00:27:01.699Z,42.13
2018-10-18T00:27:32.835Z,42.83
2018-10-18T00:28:03.977Z,44.18
2018-10-18T00:28:35.078Z,42.93
2018-10-18T00:29:06.187Z,44.35
2018-10-18T00:29:37.326Z,42.75
2018-10-18T00:30:09.043Z,43.92
2018-10-18T00:30:40.144Z,43.00
2018-10-18T00:31:11.241Z,43.00
2018-10-18T00:31:42.338Z,43.33
2018-10-18T00:32:13.543Z,45.50
2018-10-18T00:32:44.595Z,45.05
2018-10-18T00:33:15.734Z,44.73
2018-10-18T00:33:46.835Z,43.50
2018-10-18T00:34:17.935Z,43.65
2018-10-18T00:34:49.034Z,43.73
2018-10-18T00:35:20.142Z,43.10
2018-10-18T00:35:51.252Z,43.48
2018-10-18T00:36:22.368Z,42.48
2018-10-18T00:36:53.486Z,41.35
2018-10-18T00:37:24.629Z,43.13
2018-10-18T00:37:55.768Z,43.50
2018-10-18T00:38:26.843Z,42.88
2018-10-18T00:38:58.842Z,40.80
2018-10-18T00:39:30.918Z,41.10
2018-10-18T00:40:02.016Z,40.43
2018-10-18T00:40:33.132Z,39.40
2018-10-18T00:41:04.247Z,39.40
2018-10-18T00:41:35.382Z,38.15
2018-10-18T00:42:06.546Z,38.13
2018-10-18T00:42:37.681Z,37.85
2018-10-18T00:43:08.816Z,36.20
2018-10-18T00:43:39.934Z,36.77
2018-10-18T00:44:11.095Z,37.95
2018-10-18T00:44:42.210Z,37.58
2018-10-18T00:45:13.306Z,36.93
2018-10-18T00:45:44.412Z,33.95
2018-10-18T00:46:15.510Z,35.10
2018-10-18T00:46:46.619Z,35.63
2018-10-18T00:47:17.802Z,35.38
2018-10-18T00:47:48.895Z,36.08
2018-10-18T00:48:20.001Z,34.58
2018-10-18T00:48:51.990Z,35.60
2018-10-18T00:49:23.996Z,33.00
2018-10-18T00:49:55.137Z,32.08
2018-10-18T00:50:26.230Z,31.05
2018-10-18T00:50:57.369Z,29.02
2018-10-18T00:51:28.469Z,28.42
2018-10-18T00:51:59.576Z,27.85
2018-10-18T00:52:30.688Z,26.82
2018-10-18T00:53:01.786Z,25.60
2018-10-18T00:53:32.899Z,26.20
2018-10-18T00:54:04.070Z,26.70
2018-10-18T00:54:35.133Z,25.10
2018-10-18T00:55:06.252Z,25.70
2018-10-18T00:55:37.356Z,26.20
2018-10-18T00:56:08.504Z,26.00
2018-10-18T00:56:39.601Z,24.63
2018-10-18T00:57:10.699Z,24.87
2018-10-18T00:57:41.798Z,24.52
2018-10-18T00:58:12.894Z,24.55
2018-10-18T00:58:43.997Z,24.92
2018-10-18T00:59:15.127Z,25.60
2018-10-18T00:59:46.245Z,25.82
2018-10-18T01:00:17.406Z,24.23
2018-10-18T01:00:48.543Z,24.40
2018-10-18T01:01:19.637Z,23.70
2018-10-18T01:01:50.735Z,23.80
2018-10-18T01:02:21.834Z,24.12
2018-10-18T01:02:52.974Z,24.52
2018-10-18T01:03:24.058Z,22.20
2018-10-18T01:03:55.156Z,22.95
2018-10-18T01:04:26.273Z,22.15
2018-10-18T01:04:57.719Z,22.98
2018-10-18T01:05:29.727Z,22.65
2018-10-18T01:06:00.863Z,23.30
2018-10-18T01:06:31.948Z,23.10
2018-10-18T01:07:03.058Z,24.35
2018-10-18T01:07:34.177Z,23.18
2018-10-18T01:08:05.377Z,23.77
2018-10-18T01:08:36.431Z,23.22
2018-10-18T01:09:07.522Z,24.20
2018-10-18T01:09:38.637Z,23.95
2018-10-18T01:10:09.730Z,25.10
2018-10-18T01:10:40.921Z,24.90
2018-10-18T01:11:12.027Z,24.67
2018-10-18T01:11:43.132Z,25.88
2018-10-18T01:12:14.326Z,25.62
2018-10-18T01:12:45.373Z,26.48
2018-10-18T01:13:16.474Z,25.43
2018-10-18T01:13:47.575Z,24.85
2018-10-18T01:14:18.761Z,24.47
2018-10-18T01:14:49.790Z,24.75
2018-10-18T01:15:20.895Z,25.12
2018-10-18T01:15:52.090Z,24.00
2018-10-18T01:16:23.226Z,22.73
2018-10-18T01:16:54.321Z,23.75
2018-10-18T01:17:25.418Z,23.65
2018-10-18T01:17:57.217Z,23.05
2018-10-18T01:18:28.347Z,22.82
2018-10-18T01:18:59.454Z,22.65
2018-10-18T01:19:30.558Z,22.87
2018-10-18T01:20:01.732Z,22.37
2018-10-18T01:20:32.805Z,21.48
2018-10-18T01:21:03.966Z,20.10
2018-10-18T01:21:35.070Z,21.45
2018-10-18T01:22:06.168Z,20.32
2018-10-18T01:22:37.271Z,20.20
2018-10-18T01:23:08.369Z,20.17
2018-10-18T01:23:39.478Z,18.80
2018-10-18T01:24:10.650Z,19.02
2018-10-18T01:24:41.754Z,19.92
2018-10-18T01:25:12.860Z,19.10
2018-10-18T01:25:43.971Z,18.65
2018-10-18T01:26:15.214Z,18.50
2018-10-18T01:26:46.246Z,19.40
2018-10-18T01:27:17.352Z,19.57
2018-10-18T01:27:48.473Z,20.30
2018-10-18T01:28:19.587Z,19.10
2018-10-18T01:28:51.031Z,18.75
2018-10-18T01:29:23.064Z,18.25
2018-10-18T01:29:54.210Z,18.12
2018-10-18T01:30:25.321Z,18.00
2018-10-18T01:30:56.438Z,17.40
2018-10-18T01:31:27.558Z,17.27
2018-10-18T01:31:58.664Z,15.90
2018-10-18T01:32:29.779Z,16.15
2018-10-18T01:33:01.487Z,16.57
2018-10-18T01:33:32.604Z,16.27
2018-10-18T01:34:03.711Z,16.35
2018-10-18T01:34:34.844Z,15.50
2018-10-18T01:35:05.943Z,15.75
2018-10-18T01:35:37.045Z,15.88
2018-10-18T01:36:08.192Z,15.15
2018-10-18T01:36:39.325Z,15.30
2018-10-18T01:37:11.077Z,16.50
2018-10-18T01:37:42.194Z,15.93
2018-10-18T01:38:13.371Z,15.10
2018-10-18T01:38:45.221Z,16.50
2018-10-18T01:39:16.342Z,15.28
2018-10-18T01:39:48.218Z,15.10
2018-10-18T01:40:19.311Z,14.47
2018-10-18T01:40:50.413Z,14.28
2018-10-18T01:41:21.530Z,15.45
2018-10-18T01:41:52.680Z,15.00
2018-10-18T01:42:23.793Z,14.90
2018-10-18T01:42:54.906Z,14.53
2018-10-18T01:43:26.010Z,14.68
2018-10-18T01:43:57.167Z,14.20
2018-10-18T01:44:28.241Z,14.60
2018-10-18T01:44:59.335Z,13.68
2018-10-18T01:45:30.442Z,14.50
2018-10-18T01:46:01.545Z,13.40
2018-10-18T01:46:32.646Z,14.45
2018-10-18T01:47:03.793Z,14.33
2018-10-18T01:47:34.892Z,14.20
2018-10-18T01:48:06.072Z,14.40
2018-10-18T01:48:37.134Z,13.03
2018-10-18T01:49:08.251Z,12.88
2018-10-18T01:49:39.364Z,14.07
2018-10-18T01:50:10.539Z,14.60
2018-10-18T01:50:41.595Z,13.88
2018-10-18T01:51:12.690Z,13.10
2018-10-18T01:51:43.799Z,14.13
2018-10-18T01:52:14.937Z,13.75
2018-10-18T01:52:46.033Z,13.53
2018-10-18T01:53:17.129Z,14.70
2018-10-18T01:53:48.234Z,14.05
2018-10-18T01:54:20.974Z,13.53
2018-10-18T01:54:52.083Z,13.83
2018-10-18T01:55:23.188Z,14.03
2018-10-18T01:55:54.370Z,13.13
2018-10-18T01:56:25.431Z,12.95
2018-10-18T01:56:56.526Z,13.20
2018-10-18T01:57:27.640Z,13.58
2018-10-18T01:57:58.734Z,13.68
2018-10-18T01:58:29.829Z,13.43
2018-10-18T01:59:00.949Z,12.65
2018-10-18T01:59:32.085Z,14.20
2018-10-18T02:00:03.258Z,13.45
2018-10-18T02:00:34.309Z,12.13
2018-10-18T02:01:05.410Z,13.10
2018-10-18T02:01:36.517Z,12.90
2018-10-18T02:02:07.691Z,12.70
2018-10-18T02:02:38.730Z,12.75
2018-10-18T02:03:09.884Z,11.05
2018-10-18T02:03:40.983Z,12.05
2018-10-18T02:04:12.099Z,11.90
2018-10-18T02:04:43.204Z,13.10
2018-10-18T02:05:14.664Z,11.95
2018-10-18T02:05:45.769Z,12.50
2018-10-18T02:06:17.844Z,12.20
2018-10-18T02:06:48.887Z,12.60
2018-10-18T02:07:19.999Z,12.30
2018-10-18T02:07:51.104Z,12.05
2018-10-18T02:08:22.235Z,11.57
2018-10-18T02:08:53.344Z,13.22
2018-10-18T02:09:24.482Z,12.10
2018-10-18T02:09:55.598Z,11.90
2018-10-18T02:10:26.699Z,12.88
2018-10-18T02:10:57.806Z,11.48
2018-10-18T02:11:28.902Z,13.03
2018-10-18T02:12:00.033Z,12.18
2018-10-18T02:12:31.137Z,11.85
2018-10-18T02:13:02.245Z,11.68
2018-10-18T02:13:33.392Z,12.88
2018-10-18T02:14:04.528Z,12.88
2018-10-18T02:14:35.658Z,12.28
2018-10-18T02:15:06.762Z,12.55
2018-10-18T02:15:37.880Z,12.05
2018-10-18T02:16:09.019Z,12.47
2018-10-18T02:16:40.134Z,12.30
2018-10-18T02:17:11.239Z,12.58
2018-10-18T02:17:42.348Z,12.47
2018-10-18T02:18:13.550Z,13.22
2018-10-18T02:18:44.637Z,13.22
2018-10-18T02:19:15.837Z,13.10
2018-10-18T02:19:46.905Z,12.98
2018-10-18T02:20:18.013Z,13.13
2018-10-18T02:20:49.150Z,13.68
2018-10-18T02:21:20.249Z,13.48
2018-10-18T02:21:51.353Z,14.15
2018-10-18T02:22:22.453Z,12.35
2018-10-18T02:22:53.553Z,13.75
2018-10-18T02:23:25.291Z,13.25
2018-10-18T02:23:56.466Z,13.72
2018-10-18T02:24:27.538Z,14.45
2018-10-18T02:24:58.659Z,14.35
2018-10-18T02:25:29.757Z,14.75
2018-10-18T02:26:01.177Z,14.80
2018-10-18T02:26:32.398Z,13.85
2018-10-18T02:27:03.506Z,15.28
2018-10-18T02:27:34.605Z,15.78
2018-10-18T02:28:05.708Z,15.30
2018-10-18T02:28:36.802Z,15.55
2018-10-18T02:29:07.906Z,15.50
2018-10-18T02:29:39.143Z,16.32
2018-10-18T02:30:10.296Z,16.40
2018-10-18T02:30:41.370Z,16.37
2018-10-18T02:31:12.474Z,16.95
2018-10-18T02:31:43.570Z,17.15
2018-10-18T02:32:14.671Z,16.80
2018-10-18T02:32:45.769Z,16.80
2018-10-18T02:33:16.891Z,16.10
2018-10-18T02:33:47.994Z,17.15
2018-10-18T02:34:19.093Z,17.27
2018-10-18T02:34:50.221Z,17.37
2018-10-18T02:35:21.314Z,16.52
2018-10-18T02:35:52.772Z,17.25
2018-10-18T02:36:23.976Z,17.80
2018-10-18T02:36:55.038Z,17.15
2018-10-18T02:37:26.132Z,17.82
2018-10-18T02:37:57.302Z,17.48
2018-10-18T02:38:28.405Z,18.17
2018-10-18T02:38:59.507Z,17.60
2018-10-18T02:39:30.618Z,18.50
2018-10-18T02:40:01.738Z,17.07
2018-10-18T02:40:32.844Z,17.60
2018-10-18T02:41:03.957Z,18.12
2018-10-18T02:41:35.067Z,17.73
2018-10-18T02:42:06.207Z,18.37
2018-10-18T02:42:37.293Z,18.05
2018-10-18T02:43:08.437Z,18.45
2018-10-18T02:43:39.547Z,18.95
2018-10-18T02:44:10.643Z,18.02
2018-10-18T02:44:41.756Z,18.27
2018-10-18T02:45:12.863Z,18.85
2018-10-18T02:45:43.967Z,17.70
2018-10-18T02:46:15.077Z,19.07
2018-10-18T02:46:46.184Z,18.25
2018-10-18T02:47:17.304Z,18.15
2018-10-18T02:47:48.413Z,19.05
2018-10-18T02:48:19.619Z,18.65
2018-10-18T02:48:50.726Z,18.42
2018-10-18T02:49:21.831Z,18.92
2018-10-18T02:49:52.956Z,18.60
2018-10-18T02:50:24.071Z,18.82
2018-10-18T02:50:55.229Z,18.52
2018-10-18T02:51:26.345Z,19.23
2018-10-18T02:51:57.460Z,17.52
2018-10-18T02:52:28.596Z,16.75
2018-10-18T02:52:59.714Z,17.82
2018-10-18T02:53:30.826Z,18.00
2018-10-18T02:54:01.943Z,17.73
2018-10-18T02:54:33.047Z,17.82
2018-10-18T02:55:04.156Z,17.07
2018-10-18T02:55:35.259Z,17.12
2018-10-18T02:56:06.402Z,17.48
2018-10-18T02:56:37.515Z,17.45
2018-10-18T02:57:08.623Z,16.05
2018-10-18T02:57:39.725Z,17.45
2018-10-18T02:58:10.839Z,17.27
2018-10-18T02:58:41.973Z,16.97
2018-10-18T02:59:13.074Z,17.57
2018-10-18T02:59:44.185Z,17.23
2018-10-18T03:00:15.464Z,16.32
2018-10-18T03:00:46.442Z,17.10
2018-10-18T03:01:17.597Z,16.90
2018-10-18T03:01:48.710Z,17.50
2018-10-18T03:02:19.835Z,18.00
2018-10-18T03:02:50.959Z,17.82
2018-10-18T03:03:22.070Z,17.50
2018-10-18T03:03:53.181Z,17.67
2018-10-18T03:04:24.294Z,17.45
2018-10-18T03:04:55.394Z,16.67
2018-10-18T03:05:26.494Z,17.90
2018-10-18T03:05:57.698Z,17.52
2018-10-18T03:06:28.779Z,18.12
2018-10-18T03:06:59.889Z,17.75
2018-10-18T03:07:30.989Z,17.35
2018-10-18T03:08:02.087Z,17.87
2018-10-18T03:08:33.255Z,18.37
2018-10-18T03:09:04.395Z,18.98
2018-10-18T03:09:35.482Z,19.23
2018-10-18T03:10:06.576Z,17.90
2018-10-18T03:10:37.929Z,19.23
2018-10-18T03:11:09.061Z,19.30
2018-10-18T03:11:40.169Z,18.65
2018-10-18T03:12:11.317Z,18.52
2018-10-18T03:12:42.407Z,19.02
2018-10-18T03:13:13.530Z,19.42
2018-10-18T03:13:44.680Z,19.23
2018-10-18T03:14:15.787Z,18.90
2018-10-18T03:14:46.886Z,18.20
2018-10-18T03:15:17.995Z,19.02
2018-10-18T03:15:49.136Z,20.37
2018-10-18T03:16:20.269Z,19.05
2018-10-18T03:16:51.374Z,19.70
2018-10-18T03:17:22.474Z,19.37
2018-10-18T03:17:53.592Z,19.55
2018-10-18T03:18:24.710Z,18.95
2018-10-18T03:18:55.825Z,17.67
2018-10-18T03:19:26.935Z,19.30
2018-10-18T03:19:58.051Z,18.42
2018-10-18T03:20:29.151Z,18.40
2018-10-18T03:21:00.249Z,17.50
2018-10-18T03:21:31.410Z,18.82
2018-10-18T03:22:02.508Z,17.73
2018-10-18T03:22:33.639Z,18.70
2018-10-18T03:23:04.819Z,17.77
2018-10-18T03:23:35.920Z,17.98
2018-10-18T03:24:07.139Z,18.35
2018-10-18T03:24:38.183Z,18.20
2018-10-18T03:25:09.318Z,18.15
2018-10-18T03:25:40.416Z,18.73
2018-10-18T03:26:11.514Z,18.57
2018-10-18T03:26:42.675Z,19.27
2018-10-18T03:27:13.782Z,19.07
2018-10-18T03:27:44.883Z,19.60
2018-10-18T03:28:15.982Z,18.92
2018-10-18T03:28:47.077Z,19.00
2018-10-18T03:29:18.207Z,18.75
2018-10-18T03:29:49.305Z,19.25
2018-10-18T03:30:20.524Z,18.95
2018-10-18T03:30:51.541Z,19.52
2018-10-18T03:31:22.646Z,18.92
2018-10-18T03:31:53.778Z,20.02
2018-10-18T03:32:24.904Z,19.77
2018-10-18T03:32:56.018Z,20.68
2018-10-18T03:33:27.176Z,20.50
2018-10-18T03:33:58.286Z,20.17
2018-10-18T03:34:29.395Z,19.92
2018-10-18T03:35:00.520Z,20.08
2018-10-18T03:35:31.636Z,20.30
2018-10-18T03:36:02.828Z,19.75
2018-10-18T03:36:33.853Z,20.15
2018-10-18T03:37:04.960Z,21.23
2018-10-18T03:37:36.058Z,20.75
2018-10-18T03:38:07.160Z,20.52
2018-10-18T03:38:38.298Z,21.17
2018-10-18T03:39:09.405Z,20.68
2018-10-18T03:39:40.519Z,21.40
2018-10-18T03:40:11.637Z,22.32
2018-10-18T03:40:42.775Z,22.15
2018-10-18T03:41:13.877Z,22.62
2018-10-18T03:41:44.984Z,21.37
2018-10-18T03:42:16.182Z,21.75
2018-10-18T03:42:47.229Z,22.25
2018-10-18T03:43:18.337Z,23.25
2018-10-18T03:43:49.443Z,22.17
2018-10-18T03:44:20.568Z,22.20
2018-10-18T03:44:51.673Z,22.25
2018-10-18T03:45:22.793Z,21.90
2018-10-18T03:45:53.935Z,22.13
2018-10-18T03:46:25.037Z,21.05
2018-10-18T03:46:56.143Z,22.48
2018-10-18T03:47:27.290Z,20.17
2018-10-18T03:47:58.428Z,21.30
2018-10-18T03:48:29.522Z,19.57
2018-10-18T03:49:00.627Z,20.60
2018-10-18T03:49:31.738Z,20.32
2018-10-18T03:50:02.843Z,19.07
2018-10-18T03:50:33.951Z,19.15
2018-10-18T03:51:05.055Z,20.55
2018-10-18T03:51:36.162Z,19.90
2018-10-18T03:52:07.264Z,20.43
2018-10-18T03:52:38.413Z,19.90
2018-10-18T03:53:09.535Z,19.87
2018-10-18T03:53:40.638Z,19.80
2018-10-18T03:54:11.805Z,19.40
2018-10-18T03:54:42.872Z,19.40
2018-10-18T03:55:13.977Z,21.25
2018-10-18T03:55:45.082Z,19.48
2018-10-18T03:56:16.187Z,20.05
2018-10-18T03:56:47.297Z,19.65
2018-10-18T03:57:18.406Z,20.85
2018-10-18T03:57:49.578Z,19.90
2018-10-18T03:58:20.698Z,18.60
2018-10-18T03:58:51.806Z,19.35
2018-10-18T03:59:22.935Z,19.67
2018-10-18T03:59:54.089Z,19.98
2018-10-18T04:00:25.179Z,19.10
2018-10-18T04:00:56.306Z,19.60
2018-10-18T04:01:27.415Z,20.20
2018-10-18T04:01:58.516Z,19.02
2018-10-18T04:02:29.624Z,19.32
2018-10-18T04:03:00.757Z,19.48
2018-10-18T04:03:31.893Z,19.40
2018-10-18T04:04:02.989Z,20.15
2018-10-18T04:04:34.084Z,19.27
2018-10-18T04:05:05.217Z,18.48
2018-10-18T04:05:36.318Z,19.00
2018-10-18T04:06:07.453Z,18.60
2018-10-18T04:06:38.571Z,19.95
2018-10-18T04:07:09.671Z,19.48
2018-10-18T04:07:40.771Z,18.30
2018-10-18T04:08:11.875Z,19.20
2018-10-18T04:08:42.981Z,19.70
2018-10-18T04:09:14.150Z,19.52
2018-10-18T04:09:45.251Z,19.23
2018-10-18T04:10:16.466Z,18.70
2018-10-18T04:10:47.566Z,18.70
2018-10-18T04:11:18.673Z,18.60
2018-10-18T04:11:49.842Z,18.25
2018-10-18T04:12:21.024Z,18.05
2018-10-18T04:12:52.167Z,17.65
2018-10-18T04:13:23.297Z,18.67
2018-10-18T04:13:54.373Z,18.60
2018-10-18T04:14:25.511Z,19.10
2018-10-18T04:14:56.638Z,18.98
2018-10-18T04:15:28.077Z,18.98
2018-10-18T04:15:59.184Z,20.48
2018-10-18T04:16:31.700Z,21.05
2018-10-18T04:17:02.810Z,21.77
2018-10-18T04:17:33.915Z,23.10
2018-10-18T04:18:05.090Z,22.50
2018-10-18T04:18:36.209Z,21.77
2018-10-18T04:19:07.278Z,21.95
2018-10-18T04:19:38.393Z,23.35
2018-10-18T04:20:09.504Z,22.95
2018-10-18T04:20:40.607Z,23.15
2018-10-18T04:21:11.743Z,23.55
2018-10-18T04:21:42.866Z,23.57
2018-10-18T04:22:13.986Z,23.65
2018-10-18T04:22:45.086Z,23.75
2018-10-18T04:23:16.187Z,23.55
2018-10-18T04:23:48.886Z,23.98
2018-10-18T04:24:20.005Z,23.30
2018-10-18T04:24:51.119Z,23.87
2018-10-18T04:25:22.229Z,24.35
2018-10-18T04:25:53.346Z,23.45
2018-10-18T04:26:24.454Z,23.40
2018-10-18T04:26:55.581Z,24.65
2018-10-18T04:27:26.721Z,23.30
2018-10-18T04:27:57.814Z,23.92
2018-10-18T04:28:28.923Z,24.10
2018-10-18T04:29:00.027Z,23.95
2018-10-18T04:29:31.146Z,23.87
2018-10-18T04:30:02.272Z,23.40
2018-10-18T04:30:33.375Z,24.95
2018-10-18T04:31:04.525Z,24.32
2018-10-18T04:31:35.641Z,23.20
2018-10-18T04:32:06.761Z,25.12
2018-10-18T04:32:37.880Z,25.00
2018-10-18T04:33:08.992Z,23.85
2018-10-18T04:33:40.100Z,23.85
2018-10-18T04:34:11.210Z,23.77
2018-10-18T04:34:42.317Z,22.90
2018-10-18T04:35:15.334Z,23.32
2018-10-18T04:35:46.471Z,23.77
2018-10-18T04:36:17.664Z,23.87
2018-10-18T04:36:48.697Z,23.57
2018-10-18T04:37:19.814Z,24.45
2018-10-18T04:37:51.582Z,23.80
2018-10-18T04:38:23.012Z,23.12
2018-10-18T04:38:54.153Z,23.87
2018-10-18T04:39:25.249Z,23.50
2018-10-18T04:39:56.359Z,22.10
2018-10-18T04:40:27.458Z,21.17
2018-10-18T04:40:58.597Z,21.57
2018-10-18T04:41:29.707Z,22.75
2018-10-18T04:42:00.888Z,22.67
2018-10-18T04:42:32.075Z,23.07
2018-10-18T04:43:03.190Z,23.62
2018-10-18T04:43:34.293Z,23.80
2018-10-18T04:44:05.442Z,23.38
2018-10-18T04:44:36.547Z,24.37
2018-10-18T04:45:07.658Z,23.77
2018-10-18T04:45:38.766Z,25.12
2018-10-18T04:46:09.883Z,23.70
2018-10-18T04:46:40.991Z,24.32
2018-10-18T04:47:12.176Z,24.27
2018-10-18T04:47:43.295Z,24.25
2018-10-18T04:48:14.415Z,22.82
2018-10-18T04:48:45.463Z,24.72
2018-10-18T04:49:16.583Z,23.42
2018-10-18T04:49:47.685Z,24.50
2018-10-18T04:50:18.790Z,23.25
2018-10-18T04:50:49.887Z,24.70
2018-10-18T04:51:21.029Z,23.22
2018-10-18T04:51:52.133Z,23.30
2018-10-18T04:52:23.242Z,24.23
2018-10-18T04:52:54.341Z,23.65
2018-10-18T04:53:25.461Z,23.47
2018-10-18T04:53:56.578Z,24.98
2018-10-18T04:54:31.408Z,23.22
2018-10-18T04:55:02.653Z,21.80
2018-10-18T04:55:33.706Z,22.70
2018-10-18T04:56:04.814Z,22.30
2018-10-18T04:56:36.004Z,20.77
2018-10-18T04:57:07.067Z,23.20
2018-10-18T04:57:38.187Z,22.62
2018-10-18T04:58:09.293Z,22.80
2018-10-18T04:58:40.398Z,22.62
2018-10-18T04:59:48.847Z,21.65
2018-10-18T05:00:19.954Z,21.95
2018-10-18T05:00:51.117Z,21.40
2018-10-18T05:01:22.363Z,22.35
2018-10-18T05:01:53.371Z,22.50
2018-10-18T05:02:24.485Z,23.50
2018-10-18T05:02:55.582Z,22.35
2018-10-18T05:03:26.684Z,22.50
2018-10-18T05:03:57.786Z,24.18
2018-10-18T05:04:28.958Z,23.38
2018-10-18T05:05:00.063Z,23.85
2018-10-18T05:05:31.201Z,22.32
2018-10-18T05:06:02.308Z,23.27
2018-10-18T05:06:33.435Z,24.75
2018-10-18T05:07:04.570Z,25.68
2018-10-18T05:07:35.689Z,26.17
2018-10-18T05:08:06.790Z,25.85
2018-10-18T05:08:37.929Z,25.30
2018-10-18T05:09:09.064Z,26.15
2018-10-18T05:09:40.174Z,24.90
2018-10-18T05:10:11.286Z,26.42
2018-10-18T05:10:42.391Z,26.75
2018-10-18T05:11:13.559Z,25.23
2018-10-18T05:11:44.686Z,25.95
2018-10-18T05:12:15.790Z,25.82
2018-10-18T05:12:47.062Z,25.23
2018-10-18T05:13:18.144Z,25.55
2018-10-18T05:13:49.134Z,25.27
2018-10-18T05:14:20.244Z,24.75
2018-10-18T05:14:51.360Z,24.55
2018-10-18T05:15:22.498Z,24.45
2018-10-18T05:15:53.600Z,24.95
2018-10-18T05:16:24.745Z,26.02
2018-10-18T05:16:55.848Z,25.37
2018-10-18T05:17:26.946Z,25.32
2018-10-18T05:17:58.059Z,24.45
2018-10-18T05:18:29.153Z,25.00
2018-10-18T05:19:00.329Z,25.50
2018-10-18T05:19:31.426Z,24.98
2018-10-18T05:20:02.551Z,25.40
2018-10-18T05:20:33.702Z,24.15
2018-10-18T05:21:04.810Z,24.30
2018-10-18T05:21:35.919Z,23.70
2018-10-18T05:22:07.030Z,24.85
2018-10-18T05:22:38.152Z,24.27
2018-10-18T05:23:09.270Z,24.05
2018-10-18T05:23:40.392Z,24.37
2018-10-18T05:24:11.504Z,24.00
2018-10-18T05:24:42.608Z,24.37
2018-10-18T05:25:13.734Z,24.12
2018-10-18T05:30:34.029Z,23.12
2018-10-18T05:31:05.226Z,24.55
2018-10-18T05:31:36.322Z,24.25
2018-10-18T05:32:07.440Z,24.92
2018-10-18T05:32:38.558Z,25.90
2018-10-18T05:33:09.672Z,26.02
2018-10-18T05:33:40.770Z,26.87
2018-10-18T05:34:11.873Z,24.82
2018-10-18T05:34:43.007Z,25.43
2018-10-18T05:35:14.103Z,25.72
2018-10-18T05:35:45.238Z,25.77
2018-10-18T05:36:16.359Z,25.92
2018-10-18T05:36:47.491Z,25.60
2018-10-18T05:37:18.722Z,25.97
2018-10-18T05:37:49.774Z,25.57
2018-10-18T05:38:20.850Z,24.85
2018-10-18T05:38:52.019Z,25.75
2018-10-18T05:39:23.121Z,25.72
2018-10-18T05:39:54.221Z,26.52
2018-10-18T05:40:25.317Z,25.55
2018-10-18T05:40:56.971Z,26.90
2018-10-18T05:41:28.099Z,26.42
2018-10-18T05:42:00.425Z,25.57
2018-10-18T05:42:33.755Z,25.35
2018-10-18T05:43:07.299Z,25.50
2018-10-18T05:43:38.388Z,26.10
2018-10-18T05:44:09.502Z,25.50
2018-10-18T05:44:42.467Z,26.02
2018-10-18T05:45:13.619Z,25.68
2018-10-18T05:45:46.728Z,24.27
2018-10-18T05:46:17.900Z,24.23
2018-10-18T05:46:49.069Z,24.40
2018-10-18T05:47:21.102Z,25.55
2018-10-18T05:47:52.172Z,25.90
2018-10-18T05:48:23.281Z,25.35
2018-10-18T05:48:54.445Z,24.77
2018-10-18T05:49:26.282Z,25.48
2018-10-18T05:49:58.626Z,25.05
2018-10-18T05:50:30.538Z,26.73
2018-10-18T05:51:01.663Z,27.17
2018-10-18T05:51:32.762Z,25.77
2018-10-18T05:52:08.847Z,26.50
2018-10-18T05:52:39.981Z,26.00
2018-10-18T05:53:11.219Z,26.68
2018-10-18T05:53:42.347Z,24.92
2018-10-18T05:54:13.543Z,24.75
2018-10-18T05:54:44.571Z,25.12
2018-10-18T05:55:15.776Z,24.77
2018-10-18T05:55:46.822Z,25.43
2018-10-18T05:56:17.930Z,25.05
2018-10-18T05:56:49.025Z,24.20
2018-10-18T05:57:20.171Z,25.17
2018-10-18T05:57:51.293Z,23.98
2018-10-18T05:58:22.405Z,24.50
2018-10-18T05:58:53.556Z,24.15
2018-10-18T05:59:24.654Z,24.02
2018-10-18T05:59:55.795Z,23.57
2018-10-18T06:00:26.986Z,24.05
2018-10-18T06:00:58.075Z,24.27
2018-10-18T06:01:29.182Z,24.40
2018-10-18T06:02:00.332Z,22.82
2018-10-18T06:02:31.435Z,23.42
2018-10-18T06:03:02.544Z,24.23
2018-10-18T06:03:33.655Z,24.20
2018-10-18T06:04:04.805Z,24.70
2018-10-18T06:04:35.903Z,24.12
2018-10-18T06:05:07.003Z,24.92
2018-10-18T06:05:38.115Z,24.75
2018-10-18T06:06:09.453Z,23.42
2018-10-18T06:06:41.566Z,25.15
2018-10-18T06:07:12.699Z,23.25
2018-10-18T06:07:43.820Z,25.15
2018-10-18T06:08:14.967Z,23.75
2018-10-18T06:08:46.066Z,24.02
2018-10-18T06:09:17.187Z,24.05
2018-10-18T06:09:48.379Z,24.37
2018-10-18T06:10:19.496Z,24.82
2018-10-18T06:10:50.572Z,25.77
2018-10-18T06:11:22.606Z,25.30
2018-10-18T06:11:54.031Z,23.00
2018-10-18T06:12:26.234Z,23.42
2018-10-18T06:12:58.113Z,23.70
2018-10-18T06:13:29.223Z,23.12
2018-10-18T06:14:00.445Z,24.02
2018-10-18T06:14:31.589Z,23.40
2018-10-18T06:15:02.741Z,23.15
2018-10-18T06:15:34.551Z,23.15
2018-10-18T06:16:05.983Z,23.83
2018-10-18T06:16:37.612Z,23.57
2018-10-18T06:17:10.338Z,23.62
2018-10-18T06:17:41.446Z,22.70
2018-10-18T06:18:12.541Z,22.62
2018-10-18T06:18:43.648Z,22.02
2018-10-18T06:19:14.816Z,21.68
2018-10-18T06:19:45.869Z,23.20
2018-10-18T06:20:16.972Z,24.35
2018-10-18T06:20:48.089Z,24.30
2018-10-18T06:21:19.304Z,23.22
2018-10-18T06:21:51.380Z,24.35
2018-10-18T06:22:22.553Z,24.23
2018-10-18T06:22:54.123Z,23.87
2018-10-18T06:23:25.227Z,24.15
2018-10-18T06:23:56.348Z,23.47
2018-10-18T06:24:27.460Z,23.92
2018-10-18T06:24:58.612Z,24.67
2018-10-18T06:25:29.732Z,23.98
2018-10-18T06:26:00.829Z,23.40
2018-10-18T06:26:31.949Z,21.93
2018-10-18T06:27:03.054Z,20.70
2018-10-18T06:27:34.158Z,20.68
2018-10-18T06:28:05.249Z,21.35
2018-10-18T06:28:36.345Z,20.70
2018-10-18T06:29:07.498Z,21.00
2018-10-18T06:29:38.611Z,20.68
2018-10-18T06:30:09.772Z,21.60
2018-10-18T06:30:40.874Z,20.55
2018-10-18T06:31:12.008Z,20.57
2018-10-18T06:31:43.133Z,19.73
2018-10-18T06:32:14.249Z,20.50
2018-10-18T06:32:45.394Z,20.30
2018-10-18T06:33:16.523Z,21.40
2018-10-18T06:33:47.655Z,20.15
2018-10-18T06:34:18.748Z,20.55
2018-10-18T06:34:49.871Z,20.80
2018-10-18T06:35:21.736Z,21.50
2018-10-18T06:35:52.845Z,23.32
2018-10-18T06:36:23.999Z,23.25
2018-10-18T06:36:55.167Z,24.07
2018-10-18T06:37:26.408Z,23.07
2018-10-18T06:37:57.406Z,24.45
2018-10-18T06:38:28.521Z,22.95
2018-10-18T06:38:59.646Z,22.70
2018-10-18T06:39:30.792Z,22.55
2018-10-18T06:40:01.894Z,22.90
2018-10-18T06:40:33.082Z,23.40
2018-10-18T06:41:04.215Z,22.42
2018-10-18T06:41:35.350Z,22.80
2018-10-18T06:42:06.461Z,21.75
2018-10-18T06:42:37.605Z,21.68
2018-10-18T06:43:08.806Z,20.95
2018-10-18T06:43:39.861Z,22.30
2018-10-18T06:44:10.973Z,21.65
2018-10-18T06:44:42.366Z,22.37
2018-10-18T06:45:13.475Z,22.50
2018-10-18T06:45:44.598Z,22.42
2018-10-18T06:46:15.718Z,22.05
2018-10-18T06:46:46.904Z,22.02
2018-10-18T06:47:18.256Z,21.52